createdAt,value
2018-05-21T00:00:59.482Z,60.88
2018-05-21T00:03:28.503Z,60.91
2018-05-21T00:05:56.763Z,60.85
2018-05-21T00:08:25.035Z,60.74
2018-05-21T00:10:53.456Z,60.88
2018-05-21T00:13:21.734Z,60.91
2018-05-21T00:15:49.974Z,61.50
2018-05-21T00:18:18.283Z,61.46
2018-05-21T00:20:46.588Z,61.45
2018-05-21T00:23:15.605Z,61.93
2018-05-21T00:25:43.870Z,61.65
2018-05-21T00:28:12.917Z,61.85
2018-05-21T00:30:41.213Z,61.71
2018-05-21T00:33:10.221Z,62.00
2018-05-21T00:35:38.463Z,61.50
2018-05-21T00:38:06.749Z,61.69
2018-05-21T00:40:35.012Z,62.05
2018-05-21T00:43:03.270Z,62.48
2018-05-21T00:45:31.528Z,62.54
2018-05-21T00:47:59.855Z,62.44
2018-05-21T00:50:28.132Z,62.62
2018-05-21T00:52:57.922Z,62.83
2018-05-21T00:55:38.321Z,62.72
2018-05-21T00:58:06.577Z,62.89
2018-05-21T01:00:34.826Z,62.67
2018-05-21T01:03:03.081Z,62.72
2018-05-21T01:05:31.338Z,62.95
2018-05-21T01:08:00.372Z,63.46
2018-05-21T01:10:28.682Z,63.52
2018-05-21T01:12:57.722Z,63.52
2018-05-21T01:15:26.053Z,63.57
2018-05-21T01:17:54.329Z,63.78
2018-05-21T01:20:22.613Z,63.98
2018-05-21T01:22:51.647Z,63.98
2018-05-21T01:25:19.939Z,64.19
2018-05-21T01:27:48.214Z,64.19
2018-05-21T01:30:16.545Z,63.90
2018-05-21T01:32:45.615Z,63.91
2018-05-21T01:35:13.916Z,63.92
2018-05-21T01:37:42.995Z,64.34
2018-05-21T01:40:12.038Z,64.59
2018-05-21T01:42:40.311Z,64.07
2018-05-21T01:45:08.590Z,63.92
2018-05-21T01:47:36.869Z,64.16
2018-05-21T01:50:05.150Z,64.37
2018-05-21T01:52:33.434Z,64.56
2018-05-21T01:55:01.707Z,64.57
2018-05-21T01:57:30.025Z,64.33
2018-05-21T01:59:58.308Z,64.60
2018-05-21T02:02:28.106Z,64.65
2018-05-21T02:04:56.389Z,64.71
2018-05-21T02:07:24.673Z,64.76
2018-05-21T02:09:52.948Z,65.07
2018-05-21T02:12:21.212Z,65.26
2018-05-21T02:14:49.485Z,64.96
2018-05-21T02:17:17.918Z,65.20
2018-05-21T02:19:46.195Z,65.19
2018-05-21T02:22:14.477Z,65.33
2018-05-21T02:24:42.749Z,65.56
2018-05-21T02:27:11.023Z,65.43
2018-05-21T02:29:39.316Z,65.51
2018-05-21T02:32:07.614Z,65.71
2018-05-21T02:34:35.892Z,65.82
2018-05-21T02:37:04.184Z,66.27
2018-05-21T02:42:08.678Z,66.20
2018-05-21T02:44:36.943Z,65.98
2018-05-21T02:47:05.387Z,66.10
2018-05-21T02:49:35.167Z,66.29
2018-05-21T02:52:03.440Z,66.33
2018-05-21T02:54:31.836Z,66.64
2018-05-21T02:57:00.129Z,66.65
2018-05-21T02:59:28.405Z,66.67
2018-05-21T03:01:57.454Z,66.44
2018-05-21T03:04:25.743Z,66.75
2018-05-21T03:06:54.006Z,66.86
2018-05-21T03:09:22.282Z,67.07
2018-05-21T03:11:50.542Z,67.47
2018-05-21T03:14:18.872Z,67.08
2018-05-21T03:16:47.149Z,67.08
2018-05-21T03:19:15.490Z,67.61
2018-05-21T03:21:43.767Z,67.51
2018-05-21T03:24:12.082Z,67.42
2018-05-21T03:26:40.357Z,67.60
2018-05-21T03:29:09.397Z,67.92
2018-05-21T03:31:37.675Z,68.00
2018-05-21T03:34:05.943Z,68.16
2018-05-21T03:36:34.997Z,67.87
2018-05-21T03:39:04.046Z,68.19
2018-05-21T03:41:32.352Z,67.99
2018-05-21T03:44:00.644Z,68.16
2018-05-21T03:46:30.456Z,68.26
2018-05-21T03:48:58.741Z,68.42
2018-05-21T03:51:28.522Z,68.36
2018-05-21T03:53:56.812Z,68.23
2018-05-21T03:56:25.616Z,68.40
2018-05-21T03:59:11.610Z,68.76
2018-05-21T04:01:59.549Z,69.20
2018-05-21T04:04:27.842Z,69.32
2018-05-21T04:06:56.090Z,69.35
2018-05-21T04:09:25.165Z,69.12
2018-05-21T04:11:53.529Z,69.37
2018-05-21T04:14:21.705Z,69.10
2018-05-21T04:16:49.991Z,69.81
2018-05-21T04:19:18.290Z,69.23
2018-05-21T04:21:46.567Z,69.66
2018-05-21T04:24:16.387Z,69.28
2018-05-21T04:26:46.198Z,69.09
2018-05-21T04:29:15.231Z,69.02
2018-05-21T04:31:43.508Z,69.01
2018-05-21T04:34:11.783Z,69.18
2018-05-21T04:36:40.060Z,69.50
2018-05-21T04:39:08.330Z,68.85
2018-05-21T04:41:37.699Z,68.99
2018-05-21T04:44:06.733Z,69.49
2018-05-21T04:46:34.999Z,69.66
2018-05-21T04:49:04.302Z,69.71
2018-05-21T04:51:33.349Z,68.74
2018-05-21T04:54:01.608Z,68.74
2018-05-21T04:56:29.894Z,68.70
2018-05-21T04:58:58.194Z,69.38
2018-05-21T05:01:27.221Z,69.01
2018-05-21T05:03:55.504Z,68.60
2018-05-21T05:06:23.930Z,68.45
2018-05-21T05:08:52.205Z,68.32
2018-05-21T05:11:20.495Z,68.49
2018-05-21T05:13:50.300Z,67.80
2018-05-21T05:16:18.535Z,68.05
2018-05-21T05:18:46.776Z,68.30
2018-05-21T05:21:15.815Z,67.55
2018-05-21T05:23:44.055Z,68.21
2018-05-21T05:26:13.069Z,67.80
2018-05-21T05:28:41.341Z,68.47
2018-05-21T05:31:09.594Z,67.87
2018-05-21T05:33:38.666Z,67.37
2018-05-21T05:36:07.787Z,67.38
2018-05-21T05:38:36.006Z,67.02
2018-05-21T05:41:04.305Z,66.42
2018-05-21T05:43:33.348Z,65.74
2018-05-21T05:46:01.622Z,66.12
2018-05-21T05:48:29.892Z,66.85
2018-05-21T05:50:58.332Z,66.64
2018-05-21T05:53:26.608Z,67.11
2018-05-21T05:55:56.409Z,66.17
2018-05-21T05:58:24.706Z,66.41
2018-05-21T06:00:52.981Z,66.92
2018-05-21T06:03:21.323Z,66.32
2018-05-21T06:05:49.627Z,65.95
2018-05-21T06:08:17.884Z,66.32
2018-05-21T06:10:46.164Z,66.80
2018-05-21T06:13:14.760Z,66.48
2018-05-21T06:15:43.037Z,66.11
2018-05-21T06:18:11.399Z,65.85
2018-05-21T06:20:39.694Z,66.21
2018-05-21T06:23:07.986Z,66.02
2018-05-21T06:25:36.287Z,66.04
2018-05-21T06:28:04.598Z,65.63
2018-05-21T06:30:32.892Z,65.54
2018-05-21T06:33:01.176Z,65.06
2018-05-21T06:35:29.453Z,64.67
2018-05-21T06:37:57.729Z,64.53
2018-05-21T06:40:26.085Z,64.96
2018-05-21T06:42:54.369Z,64.96
2018-05-21T06:45:22.677Z,64.81
2018-05-21T06:47:51.784Z,64.23
2018-05-21T06:50:19.998Z,64.27
2018-05-21T06:52:48.409Z,64.21
2018-05-21T06:55:17.516Z,64.00
2018-05-21T06:57:46.554Z,64.37
2018-05-21T07:00:14.821Z,64.18
2018-05-21T07:02:43.368Z,63.57
2018-05-21T07:05:13.155Z,64.10
2018-05-21T07:07:41.467Z,63.79
2018-05-21T07:10:10.489Z,64.07
2018-05-21T07:12:38.764Z,62.89
2018-05-21T07:15:07.070Z,63.60
2018-05-21T07:17:35.458Z,62.69
2018-05-21T07:20:03.699Z,62.86
2018-05-21T07:22:31.941Z,62.02
2018-05-21T07:25:00.993Z,62.53
2018-05-21T07:27:29.302Z,60.30
2018-05-21T07:29:58.363Z,60.45
2018-05-21T07:32:26.649Z,60.25
2018-05-21T07:34:54.949Z,60.23
2018-05-21T07:37:24.746Z,61.81
2018-05-21T07:39:53.039Z,61.42
2018-05-21T07:42:21.305Z,60.30
2018-05-21T07:44:49.591Z,58.88
2018-05-21T07:47:17.903Z,58.31
2018-05-21T07:49:46.958Z,58.95
2018-05-21T07:52:15.229Z,58.11
2018-05-21T07:54:43.511Z,59.24
2018-05-21T07:57:11.791Z,59.50
2018-05-21T07:59:41.597Z,58.67
2018-05-21T08:02:09.863Z,57.43
2018-05-21T08:04:38.147Z,56.96
2018-05-21T08:07:06.439Z,55.82
2018-05-21T08:09:34.707Z,55.46
2018-05-21T08:12:03.164Z,56.36
2018-05-21T08:14:31.557Z,56.70
2018-05-21T08:17:01.322Z,57.89
2018-05-21T08:19:29.552Z,55.67
2018-05-21T08:21:59.357Z,55.53
2018-05-21T08:24:27.600Z,56.68
2018-05-21T08:26:55.893Z,56.78
2018-05-21T08:29:24.134Z,55.27
2018-05-21T08:31:52.406Z,55.90
2018-05-21T08:34:20.676Z,54.39
2018-05-21T08:36:49.692Z,55.89
2018-05-21T08:39:17.928Z,54.63
2018-05-21T08:41:46.984Z,54.29
2018-05-21T08:44:15.215Z,52.90
2018-05-21T08:46:44.225Z,52.07
2018-05-21T08:49:12.498Z,54.25
2018-05-21T08:51:40.774Z,53.23
2018-05-21T08:54:09.073Z,53.43
2018-05-21T08:56:37.391Z,53.01
2018-05-21T08:59:05.607Z,51.93
2018-05-21T09:01:33.885Z,51.32
2018-05-21T09:04:02.315Z,51.86
2018-05-21T09:06:30.542Z,53.29
2018-05-21T09:08:58.803Z,50.84
2018-05-21T09:11:27.062Z,51.34
2018-05-21T09:13:56.093Z,50.96
2018-05-21T09:16:24.402Z,51.48
2018-05-21T09:18:52.623Z,50.28
2018-05-21T09:21:20.921Z,50.38
2018-05-21T09:23:49.177Z,50.19
2018-05-21T09:26:17.609Z,50.60
2018-05-21T09:28:45.853Z,49.99
2018-05-21T09:31:14.087Z,48.90
2018-05-21T09:33:43.102Z,49.47
2018-05-21T09:36:11.377Z,48.29
2018-05-21T09:38:39.655Z,47.75
2018-05-21T09:41:07.922Z,49.06
2018-05-21T09:43:36.938Z,48.72
2018-05-21T09:46:05.217Z,47.86
2018-05-21T09:48:33.518Z,47.33
2018-05-21T09:51:01.772Z,46.39
2018-05-21T09:53:30.007Z,48.00
2018-05-21T09:55:59.055Z,46.83
2018-05-21T09:58:27.301Z,47.01
2018-05-21T10:00:55.550Z,47.19
2018-05-21T10:03:24.590Z,46.52
2018-05-21T10:05:52.856Z,46.03
2018-05-21T10:08:21.290Z,47.21
2018-05-21T10:10:50.341Z,46.96
2018-05-21T10:13:18.619Z,47.03
2018-05-21T10:15:47.153Z,43.99
2018-05-21T10:18:15.408Z,44.67
2018-05-21T10:20:44.425Z,43.97
2018-05-21T10:23:13.593Z,43.18
2018-05-21T10:25:41.848Z,43.39
2018-05-21T10:28:10.136Z,43.59
2018-05-21T10:30:38.387Z,42.54
2018-05-21T10:33:06.720Z,44.70
2018-05-21T10:35:35.707Z,43.65
2018-05-21T10:38:03.966Z,41.61
2018-05-21T10:40:32.240Z,43.08
2018-05-21T10:43:00.596Z,44.59
2018-05-21T10:45:28.836Z,45.69
2018-05-21T10:47:57.875Z,44.52
2018-05-21T10:50:26.122Z,45.17
2018-05-21T10:52:54.411Z,44.70
2018-05-21T10:55:22.632Z,43.87
2018-05-21T10:57:51.663Z,45.87
2018-05-21T11:00:19.927Z,42.58
2018-05-21T11:02:48.955Z,44.82
2018-05-21T11:05:18.645Z,43.65
2018-05-21T11:07:46.898Z,43.18
2018-05-21T11:10:15.914Z,43.77
2018-05-21T11:12:45.062Z,44.01
2018-05-21T11:15:14.084Z,45.24
2018-05-21T11:17:43.077Z,45.89
2018-05-21T11:20:12.118Z,45.64
2018-05-21T11:22:40.358Z,44.38
2018-05-21T11:25:08.610Z,42.71
2018-05-21T11:27:37.766Z,44.53
2018-05-21T11:30:06.051Z,42.69
2018-05-21T11:32:34.282Z,42.97
2018-05-21T11:35:02.555Z,45.04
2018-05-21T11:37:30.799Z,42.66
2018-05-21T11:39:59.808Z,41.47
2018-05-21T11:42:28.064Z,42.71
2018-05-21T11:44:57.083Z,43.17
2018-05-21T11:47:26.087Z,42.84
2018-05-21T11:49:54.374Z,44.01
2018-05-21T11:52:22.639Z,43.51
2018-05-21T11:54:50.926Z,43.91
2018-05-21T11:57:19.198Z,43.67
2018-05-21T11:59:47.453Z,42.73
2018-05-21T12:02:16.502Z,43.31
2018-05-21T12:04:44.739Z,43.20
2018-05-21T12:07:12.986Z,43.27
2018-05-21T12:09:42.046Z,41.06
2018-05-21T12:12:10.627Z,40.70
2018-05-21T12:14:38.862Z,40.72
2018-05-21T12:17:07.112Z,39.76
2018-05-21T12:19:36.419Z,42.65
2018-05-21T12:22:05.428Z,43.22
2018-05-21T12:24:34.466Z,42.53
2018-05-21T12:27:02.725Z,42.81
2018-05-21T12:29:30.978Z,44.65
2018-05-21T12:31:59.214Z,43.89
2018-05-21T12:34:29.111Z,45.28
2018-05-21T12:36:57.355Z,42.70
2018-05-21T12:39:25.587Z,41.32
2018-05-21T12:41:54.023Z,41.22
2018-05-21T12:44:22.295Z,44.53
2018-05-21T12:46:50.603Z,45.71
2018-05-21T12:49:18.811Z,42.51
2018-05-21T12:51:47.837Z,43.07
2018-05-21T12:54:16.081Z,41.87
2018-05-21T12:56:44.326Z,43.62
2018-05-21T12:59:13.363Z,42.23
2018-05-21T13:01:42.377Z,42.28
2018-05-21T13:04:10.629Z,41.02
2018-05-21T13:06:38.895Z,40.66
2018-05-21T13:09:08.050Z,40.68
2018-05-21T13:11:36.281Z,41.61
2018-05-21T13:14:04.530Z,42.49
2018-05-21T13:16:34.278Z,41.75
2018-05-21T13:19:02.542Z,41.64
2018-05-21T13:21:30.773Z,40.23
2018-05-21T13:23:59.782Z,41.22
2018-05-21T13:26:29.162Z,41.79
2018-05-21T13:28:57.423Z,42.57
2018-05-21T13:31:25.665Z,40.50
2018-05-21T13:33:54.675Z,41.61
2018-05-21T13:36:22.914Z,42.66
2018-05-21T13:38:51.925Z,43.98
2018-05-21T13:41:20.942Z,44.29
2018-05-21T13:43:49.200Z,44.64
2018-05-21T13:46:17.441Z,42.87
2018-05-21T13:48:46.446Z,42.31
2018-05-21T13:51:15.460Z,44.06
2018-05-21T13:53:43.701Z,43.43
2018-05-21T13:56:12.721Z,42.94
2018-05-21T13:58:41.749Z,43.13
2018-05-21T14:01:09.998Z,40.85
2018-05-21T14:03:38.241Z,41.03
2018-05-21T14:06:06.479Z,40.59
2018-05-21T14:08:34.733Z,42.17
2018-05-21T14:11:02.973Z,42.75
2018-05-21T14:13:31.977Z,41.17
2018-05-21T14:16:01.142Z,39.48
2018-05-21T14:18:29.380Z,40.47
2018-05-21T14:20:57.627Z,42.42
2018-05-21T14:23:26.645Z,41.43
2018-05-21T14:25:54.886Z,41.78
2018-05-21T14:28:23.118Z,40.95
2018-05-21T14:30:51.537Z,41.47
2018-05-21T14:33:19.841Z,41.31
2018-05-21T14:35:48.031Z,40.25
2018-05-21T14:38:18.307Z,40.88
2018-05-21T14:40:47.314Z,41.35
2018-05-21T14:43:16.323Z,41.61
2018-05-21T14:45:44.709Z,40.70
2018-05-21T14:48:13.002Z,41.19
2018-05-21T14:50:41.233Z,41.41
2018-05-21T14:53:10.453Z,41.47
2018-05-21T14:55:38.691Z,40.84
2018-05-21T14:58:06.924Z,41.92
2018-05-21T15:00:35.312Z,39.79
2018-05-21T15:03:03.550Z,40.00
2018-05-21T15:05:32.557Z,38.20
2018-05-21T15:08:00.807Z,39.39
2018-05-21T15:10:29.818Z,38.82
2018-05-21T15:12:58.062Z,40.36
2018-05-21T15:15:27.061Z,40.30
2018-05-21T15:17:55.623Z,40.79
2018-05-21T15:20:23.866Z,41.44
2018-05-21T15:22:52.105Z,41.76
2018-05-21T15:25:21.126Z,41.24
2018-05-21T15:27:49.714Z,42.29
2018-05-21T15:30:17.955Z,42.04
2018-05-21T15:32:46.958Z,42.38
2018-05-21T15:35:15.980Z,42.90
2018-05-21T15:37:44.210Z,43.25
2018-05-21T15:40:12.452Z,43.79
2018-05-21T15:42:40.697Z,44.88
2018-05-21T15:45:08.935Z,45.87
2018-05-21T15:47:37.169Z,46.08
2018-05-21T15:50:05.417Z,46.91
2018-05-21T15:52:33.654Z,46.64
2018-05-21T15:55:01.902Z,45.59
2018-05-21T15:57:30.186Z,46.29
2018-05-21T15:59:58.369Z,47.46
2018-05-21T16:02:26.615Z,47.99
2018-05-21T16:04:54.854Z,46.03
2018-05-21T16:07:23.869Z,46.42
2018-05-21T16:09:52.271Z,46.28
2018-05-21T16:12:20.506Z,45.73
2018-05-21T16:14:49.514Z,47.25
2018-05-21T16:17:17.766Z,46.89
2018-05-21T16:19:46.779Z,47.10
2018-05-21T16:22:15.020Z,47.31
2018-05-21T16:24:43.267Z,45.60
2018-05-21T16:27:11.507Z,44.31
2018-05-21T16:29:39.764Z,44.97
2018-05-21T16:32:08.761Z,44.93
2018-05-21T16:34:37.757Z,45.03
2018-05-21T16:37:06.766Z,44.55
2018-05-21T16:39:34.997Z,45.11
2018-05-21T16:42:03.242Z,45.27
2018-05-21T16:44:31.478Z,45.81
2018-05-21T16:47:00.057Z,45.74
2018-05-21T16:49:29.066Z,45.18
2018-05-21T16:51:57.302Z,44.79
2018-05-21T16:54:25.750Z,45.14
2018-05-21T16:56:53.989Z,45.62
2018-05-21T16:59:22.232Z,45.12
2018-05-21T17:01:50.515Z,45.90
2018-05-21T17:04:19.535Z,45.38
2018-05-21T17:06:47.774Z,45.81
2018-05-21T17:09:16.331Z,45.54
2018-05-21T17:11:44.566Z,46.47
2018-05-21T17:14:12.814Z,46.80
2018-05-21T17:16:41.057Z,47.17
2018-05-21T17:19:09.295Z,48.04
2018-05-21T17:21:37.541Z,48.51
2018-05-21T17:24:05.785Z,48.43
2018-05-21T17:26:34.228Z,48.84
2018-05-21T17:29:02.468Z,48.42
2018-05-21T17:31:30.693Z,48.14
2018-05-21T17:33:58.946Z,48.47
2018-05-21T17:36:27.186Z,47.86
2018-05-21T17:38:55.419Z,48.47
2018-05-21T17:41:23.877Z,48.44
2018-05-21T17:43:52.111Z,48.80
2018-05-21T17:46:20.345Z,49.43
2018-05-21T17:48:48.613Z,48.57
2018-05-21T17:51:16.851Z,46.99
2018-05-21T17:53:45.098Z,46.76
2018-05-21T17:56:13.334Z,47.22
2018-05-21T17:58:41.574Z,46.70
2018-05-21T18:01:09.807Z,47.30
2018-05-21T18:03:38.086Z,48.13
2018-05-21T18:06:06.309Z,47.70
2018-05-21T18:08:35.326Z,48.95
2018-05-21T18:11:03.578Z,48.92
2018-05-21T18:13:32.580Z,48.46
2018-05-21T18:16:01.590Z,49.92
2018-05-21T18:18:29.839Z,50.36
2018-05-21T18:20:58.267Z,50.27
2018-05-21T18:23:26.519Z,50.57
2018-05-21T18:25:54.764Z,50.70
2018-05-21T18:28:23.007Z,49.59
2018-05-21T18:30:51.257Z,49.29
2018-05-21T18:33:19.828Z,49.58
2018-05-21T18:35:48.898Z,49.86
2018-05-21T18:38:17.082Z,50.08
2018-05-21T18:40:46.114Z,49.91
2018-05-21T18:43:14.354Z,50.19
2018-05-21T18:45:43.359Z,51.51
2018-05-21T18:48:12.365Z,51.23
2018-05-21T18:50:40.939Z,52.47
2018-05-21T18:53:09.182Z,52.41
2018-05-21T18:55:37.517Z,52.85
2018-05-21T18:58:05.869Z,52.44
2018-05-21T19:00:35.071Z,52.74
2018-05-21T19:03:04.075Z,52.61
2018-05-21T19:05:32.329Z,53.14
2018-05-21T19:08:01.385Z,54.13
2018-05-21T19:10:29.628Z,53.67
2018-05-21T19:12:57.891Z,54.46
2018-05-21T19:15:26.466Z,54.75
2018-05-21T19:17:54.707Z,54.77
2018-05-21T19:20:22.947Z,55.82
2018-05-21T19:22:51.205Z,55.73
2018-05-21T19:25:19.433Z,56.75
2018-05-21T19:27:47.679Z,56.64
2018-05-21T19:30:15.925Z,57.12
2018-05-21T19:32:44.179Z,57.10
2018-05-21T19:35:12.472Z,58.17
2018-05-21T19:37:40.718Z,58.12
2018-05-21T19:40:09.343Z,58.10
2018-05-21T19:42:37.586Z,59.08
2018-05-21T19:45:06.594Z,58.74
2018-05-21T19:47:34.842Z,59.00
2018-05-21T19:50:03.898Z,58.60
2018-05-21T19:52:32.163Z,58.95
2018-05-21T19:55:00.438Z,59.45
2018-05-21T19:57:28.674Z,59.36
2018-05-21T19:59:57.757Z,60.25
2018-05-21T20:02:25.967Z,60.22
2018-05-21T20:04:54.295Z,60.56
2018-05-21T20:07:23.421Z,60.53
2018-05-21T20:09:51.754Z,60.96
2018-05-21T20:12:19.990Z,59.79
2018-05-21T20:14:48.494Z,59.45
2018-05-21T20:17:16.776Z,59.18
2018-05-21T20:19:45.011Z,58.88
2018-05-21T20:22:14.029Z,59.32
2018-05-21T20:24:42.351Z,59.24
2018-05-21T20:27:10.592Z,59.53
2018-05-21T20:29:38.843Z,60.40
2018-05-21T20:32:07.102Z,59.77
2018-05-21T20:37:11.631Z,60.99
2018-05-21T20:39:39.806Z,60.58
2018-05-21T20:42:08.814Z,60.32
2018-05-21T20:44:37.817Z,60.64
2018-05-21T20:47:06.073Z,60.60
2018-05-21T20:49:35.095Z,61.60
2018-05-21T20:52:03.353Z,61.85
2018-05-21T20:54:32.369Z,61.77
2018-05-21T20:57:00.610Z,62.04
2018-05-21T20:59:29.627Z,61.90
2018-05-21T21:01:57.908Z,62.39
2018-05-21T21:04:26.166Z,61.72
2018-05-21T21:06:55.179Z,62.12
2018-05-21T21:09:23.605Z,62.45
2018-05-21T21:11:51.892Z,63.36
2018-05-21T21:14:20.125Z,63.26
2018-05-21T21:16:48.498Z,63.64
2018-05-21T21:19:16.718Z,63.61
2018-05-21T21:21:45.034Z,63.84
2018-05-21T21:24:13.227Z,63.61
2018-05-21T21:26:41.467Z,63.92
2018-05-21T21:29:10.477Z,64.63
2018-05-21T21:31:38.721Z,64.39
2018-05-21T21:34:06.987Z,64.71
2018-05-21T21:36:35.231Z,64.53
2018-05-21T21:39:03.777Z,64.59
2018-05-21T21:41:32.142Z,64.70
2018-05-21T21:44:01.236Z,64.72
2018-05-21T21:46:29.512Z,65.00
2018-05-21T21:48:58.522Z,65.21
2018-05-21T21:51:26.779Z,65.18
2018-05-21T21:53:55.010Z,64.85
2018-05-21T21:56:23.250Z,65.03
2018-05-21T21:58:52.450Z,64.99
2018-05-21T22:01:20.685Z,64.92
2018-05-21T22:03:48.924Z,65.49
2018-05-21T22:06:17.575Z,65.31
2018-05-21T22:08:46.576Z,66.02
2018-05-21T22:11:14.818Z,65.90
2018-05-21T22:13:43.062Z,66.12
2018-05-21T22:16:11.313Z,66.17
2018-05-21T22:18:39.555Z,66.66
2018-05-21T22:21:08.571Z,67.06
2018-05-21T22:23:36.820Z,66.90
2018-05-21T22:26:05.067Z,67.03
2018-05-21T22:28:33.523Z,67.26
2018-05-21T22:31:01.770Z,67.37
2018-05-21T22:33:30.776Z,67.44
2018-05-21T22:35:59.030Z,67.76
2018-05-21T22:38:28.033Z,67.83
2018-05-21T22:40:57.040Z,67.99
2018-05-21T22:43:25.292Z,68.15
2018-05-21T22:45:54.304Z,68.25
2018-05-21T22:48:23.403Z,68.15
2018-05-21T22:50:51.880Z,68.69
2018-05-21T22:53:20.109Z,68.49
2018-05-21T22:55:48.344Z,68.61
2018-05-21T22:58:16.818Z,68.66
2018-05-21T23:00:45.051Z,68.76
2018-05-21T23:03:13.282Z,68.80
2018-05-21T23:05:41.533Z,68.48
2018-05-21T23:08:09.778Z,69.05
2018-05-21T23:10:38.019Z,69.05
2018-05-21T23:13:06.591Z,69.30
2018-05-21T23:15:34.834Z,69.39
2018-05-21T23:18:03.833Z,69.18
2018-05-21T23:20:32.849Z,68.96
2018-05-21T23:23:01.081Z,69.31
2018-05-21T23:25:29.434Z,69.28
2018-05-21T23:27:57.731Z,69.39
2018-05-21T23:30:25.952Z,69.68
2018-05-21T23:32:54.337Z,70.17
2018-05-21T23:35:22.577Z,69.87
2018-05-21T23:37:51.581Z,69.99
2018-05-21T23:40:20.602Z,70.17
2018-05-21T23:42:48.841Z,69.67
2018-05-21T23:45:17.842Z,69.68
2018-05-21T23:47:46.858Z,68.70
2018-05-21T23:50:15.970Z,69.25
2018-05-21T23:52:44.223Z,69.24
2018-05-21T23:55:13.452Z,69.53
2018-05-21T23:57:41.695Z,68.99
